Time;durP1;ratioP1;P1;durP2;ratioP2;P2;SDS_P1;SDS_P2;PMS_P1;PMS_P2;Temp;Humidity;BMP_temperature;BMP_pressure;BME280_temperature;BME280_humidity;BME280_pressure;Samples;Min_cycle;Max_cycle;Signal;HPM_P1;HPM_P2
2022/09/03 00:00:35;;;;;;;4.30;3.90;;;21.90;96.20;;;;;;6283032;27;89159;-64
2022/09/03 00:03:44;;;;;;;4.75;4.13;;;21.80;96.20;;;;;;6282964;27;87870;-64
2022/09/03 00:06:51;;;;;;;3.88;3.50;;;21.80;96.10;;;;;;6282321;27;90043;-65
2022/09/03 00:09:57;;;;;;;4.28;3.80;;;21.80;96.10;;;;;;6271631;27;89360;-65
2022/09/03 00:13:03;;;;;;;4.38;3.97;;;21.80;96.00;;;;;;6270666;27;89056;-65
2022/09/03 00:16:11;;;;;;;4.25;3.85;;;21.80;95.90;;;;;;6278271;27;89375;-64
2022/09/03 00:19:19;;;;;;;5.63;3.88;;;21.80;95.80;;;;;;6279844;27;89398;-64
2022/09/03 00:22:24;;;;;;;3.97;3.58;;;21.80;95.80;;;;;;6277262;27;89002;-65
2022/09/03 00:25:34;;;;;;;3.83;3.40;;;21.80;95.70;;;;;;6282286;27;89114;-65
2022/09/03 00:28:42;;;;;;;4.93;4.28;;;21.80;95.70;;;;;;6282958;27;88270;-64
2022/09/03 00:31:47;;;;;;;3.60;3.30;;;21.80;95.60;;;;;;6281832;27;88971;-65
2022/09/03 00:34:54;;;;;;;4.43;3.85;;;21.80;95.60;;;;;;6280884;27;89103;-64
2022/09/03 00:37:57;;;;;;;4.47;4.05;;;21.80;95.60;;;;;;6282510;27;90022;-64
2022/09/03 00:41:09;;;;;;;4.47;3.90;;;21.80;95.50;;;;;;6282774;27;89380;-64
2022/09/03 00:44:32;;;;;;;4.78;4.28;;;21.80;95.60;;;;;;6283005;27;89371;-64
2022/09/03 00:47:43;;;;;;;4.45;4.03;;;21.80;95.50;;;;;;6270603;27;89027;-65
2022/09/03 00:51:00;;;;;;;4.35;3.95;;;21.80;95.50;;;;;;6280731;27;88775;-64
2022/09/03 00:54:08;;;;;;;4.22;3.72;;;21.80;95.50;;;;;;6280480;27;89005;-64
2022/09/03 00:57:24;;;;;;;4.57;4.00;;;21.80;95.50;;;;;;6280833;27;89073;-64
2022/09/03 01:00:26;;;;;;;4.35;3.95;;;21.80;95.50;;;;;;6281655;27;88419;-65
2022/09/03 01:03:44;;;;;;;4.97;4.13;;;21.80;95.50;;;;;;6281556;27;89431;-64
2022/09/03 01:06:57;;;;;;;4.35;3.75;;;21.80;95.40;;;;;;6270107;27;89115;-64
2022/09/03 01:10:10;;;;;;;4.28;3.88;;;21.80;95.40;;;;;;6281033;27;89884;-64
2022/09/03 01:13:18;;;;;;;4.57;4.18;;;21.80;95.40;;;;;;6281624;27;89430;-64
2022/09/03 01:16:29;;;;;;;4.60;4.15;;;21.80;95.40;;;;;;6269733;27;87935;-64
2022/09/03 01:19:52;;;;;;;4.57;4.18;;;21.80;95.40;;;;;;6269513;27;89053;-65
2022/09/03 01:23:34;;;;;;;5.05;4.50;;;21.80;95.30;;;;;;6270570;27;89057;-64
2022/09/03 01:26:55;;;;;;;4.72;4.22;;;21.80;95.30;;;;;;6272352;27;89205;-64
2022/09/03 01:30:04;;;;;;;4.45;3.85;;;21.80;95.20;;;;;;6280699;27;89033;-64
2022/09/03 01:33:13;;;;;;;4.43;3.80;;;21.80;95.10;;;;;;6281424;27;89481;-65
2022/09/03 01:36:25;;;;;;;5.22;4.53;;;21.70;94.90;;;;;;6273758;27;88812;-65
2022/09/03 01:39:38;;;;;;;4.18;3.78;;;21.80;95.00;;;;;;6281731;27;89088;-64
2022/09/03 01:42:53;;;;;;;6.13;4.00;;;21.80;95.00;;;;;;6271946;27;90057;-64
2022/09/03 01:46:01;;;;;;;4.88;4.05;;;21.80;94.90;;;;;;6280952;27;88434;-64
2022/09/03 01:49:14;;;;;;;4.22;3.83;;;21.80;94.90;;;;;;6279965;27;89077;-64
2022/09/03 01:52:25;;;;;;;4.43;3.85;;;21.80;94.80;;;;;;6280564;27;89129;-64
2022/09/03 01:55:33;;;;;;;4.32;3.85;;;21.80;94.80;;;;;;6281014;27;89081;-64
2022/09/03 01:58:42;;;;;;;4.03;3.50;;;21.80;94.70;;;;;;6269460;27;89107;-64
2022/09/03 02:01:50;;;;;;;4.35;3.95;;;21.70;94.80;;;;;;6281809;27;89099;-64
2022/09/03 02:04:59;;;;;;;4.35;3.85;;;21.70;94.80;;;;;;6281538;27;88371;-64
2022/09/03 02:08:04;;;;;;;3.90;3.50;;;21.80;94.70;;;;;;6279164;27;88958;-64
2022/09/03 02:11:08;;;;;;;5.03;3.78;;;21.70;94.60;;;;;;6272128;27;90026;-64
2022/09/03 02:14:10;;;;;;;3.97;3.58;;;21.70;94.40;;;;;;6279280;27;89955;-64
2022/09/03 02:17:14;;;;;;;3.88;3.47;;;21.70;94.40;;;;;;6279560;27;89170;-64
2022/09/03 02:20:19;;;;;;;4.30;3.40;;;21.70;94.30;;;;;;6283969;27;89443;-64
2022/09/03 02:23:23;;;;;;;3.83;3.35;;;21.80;94.20;;;;;;6283191;27;89492;-65
2022/09/03 02:26:25;;;;;;;4.18;3.60;;;21.70;94.20;;;;;;6284766;27;87885;-64
2022/09/03 02:29:27;;;;;;;3.97;3.42;;;21.70;94.10;;;;;;6283504;27;89106;-64
2022/09/03 02:32:31;;;;;;;4.38;3.63;;;21.70;94.10;;;;;;6284550;27;89068;-64
2022/09/03 02:35:34;;;;;;;4.78;3.42;;;21.70;94.00;;;;;;6284213;27;88502;-65
2022/09/03 02:38:36;;;;;;;3.30;3.00;;;21.70;94.10;;;;;;6273957;27;89431;-65
2022/09/03 02:41:38;;;;;;;4.10;3.10;;;21.70;94.10;;;;;;6284109;27;89082;-65
2022/09/03 02:44:44;;;;;;;4.18;3.40;;;21.70;93.90;;;;;;6284915;27;88916;-64
2022/09/03 02:47:52;;;;;;;3.97;3.40;;;21.70;93.90;;;;;;6281420;27;88907;-64
2022/09/03 02:50:54;;;;;;;3.85;3.20;;;21.70;94.00;;;;;;6283934;27;88995;-64
2022/09/03 02:53:56;;;;;;;4.10;3.17;;;21.70;94.00;;;;;;6284240;27;89034;-65
2022/09/03 02:56:58;;;;;;;3.50;3.20;;;21.70;94.10;;;;;;6284698;27;89469;-64
2022/09/03 03:00:00;;;;;;;3.45;3.00;;;21.70;94.10;;;;;;6275795;27;88780;-64
2022/09/03 03:03:04;;;;;;;3.08;2.78;;;21.70;94.20;;;;;;6284537;27;89020;-64
2022/09/03 03:06:06;;;;;;;3.40;3.10;;;21.70;94.20;;;;;;6273404;27;88347;-64
2022/09/03 03:09:08;;;;;;;4.57;3.40;;;21.70;94.30;;;;;;6283368;27;89084;-64
2022/09/03 03:12:10;;;;;;;3.78;3.10;;;21.70;94.30;;;;;;6283992;27;89020;-64
2022/09/03 03:15:12;;;;;;;3.28;2.97;;;21.70;94.40;;;;;;6283168;27;89992;-64
2022/09/03 03:18:16;;;;;;;3.40;3.10;;;21.70;94.40;;;;;;6284029;27;89022;-64
2022/09/03 03:21:18;;;;;;;4.10;3.42;;;21.70;94.50;;;;;;6283616;27;89094;-64
2022/09/03 03:24:20;;;;;;;3.60;3.30;;;21.70;94.50;;;;;;6284579;27;89443;-64
2022/09/03 03:27:23;;;;;;;5.75;3.20;;;21.70;94.50;;;;;;6283465;27;87998;-64
2022/09/03 03:30:25;;;;;;;3.72;2.92;;;21.70;94.60;;;;;;6281594;27;89055;-64
2022/09/03 03:33:28;;;;;;;4.25;3.17;;;21.70;94.60;;;;;;6283056;27;89126;-64
2022/09/03 03:36:33;;;;;;;4.18;3.40;;;21.70;94.70;;;;;;6284632;27;88314;-64
2022/09/03 03:39:35;;;;;;;4.20;3.20;;;21.70;94.70;;;;;;6284707;27;88912;-64
2022/09/03 03:42:37;;;;;;;4.45;3.25;;;21.70;94.70;;;;;;6282949;27;89141;-64
2022/09/03 03:45:39;;;;;;;3.75;3.35;;;21.70;94.70;;;;;;6282893;27;90424;-63
2022/09/03 03:48:42;;;;;;;3.28;2.95;;;21.70;94.80;;;;;;6282811;27;89154;-64
2022/09/03 03:51:44;;;;;;;4.05;3.28;;;21.70;94.80;;;;;;6283462;27;87985;-64
2022/09/03 03:54:48;;;;;;;4.30;3.40;;;21.70;94.70;;;;;;6281167;27;89079;-64
2022/09/03 03:57:50;;;;;;;6.43;3.70;;;21.70;94.70;;;;;;6282979;27;88202;-64
2022/09/03 04:00:52;;;;;;;3.22;2.92;;;21.70;94.80;;;;;;6283485;27;89078;-64
2022/09/03 04:03:58;;;;;;;4.10;3.70;;;21.70;94.80;;;;;;6270845;27;89183;-64
2022/09/03 04:07:00;;;;;;;3.53;2.95;;;21.70;94.80;;;;;;6283052;27;88397;-64
2022/09/03 04:10:02;;;;;;;3.83;3.20;;;21.70;94.80;;;;;;6283016;27;89204;-64
2022/09/03 04:13:04;;;;;;;5.88;3.50;;;21.70;94.80;;;;;;6278102;27;89459;-64
2022/09/03 04:16:08;;;;;;;3.85;3.42;;;21.70;94.80;;;;;;6282566;27;90053;-64
2022/09/03 04:19:12;;;;;;;3.42;3.13;;;21.70;94.80;;;;;;6278266;27;89511;-64
2022/09/03 04:22:14;;;;;;;4.60;3.30;;;21.70;94.90;;;;;;6282238;27;87987;-64
2022/09/03 04:25:16;;;;;;;4.80;3.55;;;21.70;94.90;;;;;;6282905;27;89017;-64
2022/09/03 04:28:18;;;;;;;4.05;3.53;;;21.70;94.90;;;;;;6282652;27;89427;-64
2022/09/03 04:31:22;;;;;;;4.40;3.67;;;21.60;94.80;;;;;;6280233;27;89127;-64
2022/09/03 04:34:25;;;;;;;3.80;3.40;;;21.70;94.80;;;;;;6282819;27;90321;-64
2022/09/03 04:37:27;;;;;;;3.97;3.53;;;21.60;94.90;;;;;;6282247;27;88310;-64
2022/09/03 04:40:29;;;;;;;3.70;3.40;;;21.70;95.00;;;;;;6281825;27;89336;-64
2022/09/03 04:43:31;;;;;;;4.18;3.60;;;21.70;95.00;;;;;;6282202;27;89183;-64
2022/09/03 04:46:33;;;;;;;3.75;3.38;;;21.70;94.90;;;;;;6281047;27;90057;-64
2022/09/03 04:49:37;;;;;;;3.70;3.40;;;21.60;94.80;;;;;;6282038;27;89082;-64
2022/09/03 04:52:39;;;;;;;4.65;3.47;;;21.60;95.30;;;;;;6282407;27;89260;-63
2022/09/03 04:55:41;;;;;;;4.18;3.63;;;21.60;94.80;;;;;;6279830;27;88314;-64
2022/09/03 04:58:44;;;;;;;4.25;3.78;;;21.70;94.80;;;;;;6279824;27;89406;-64
2022/09/03 05:01:46;;;;;;;3.55;3.25;;;21.70;94.80;;;;;;6281608;27;89168;-64
2022/09/03 05:04:49;;;;;;;4.22;3.55;;;21.70;94.80;;;;;;6281625;27;87725;-63
2022/09/03 05:07:52;;;;;;;3.33;3.03;;;21.70;94.80;;;;;;6281433;27;88338;-64
2022/09/03 05:11:00;;;;;;;4.13;3.60;;;21.70;94.80;;;;;;6280298;27;89115;-64
2022/09/03 05:14:02;;;;;;;5.32;3.60;;;21.70;94.70;;;;;;6282714;27;88952;-64
2022/09/03 05:17:04;;;;;;;3.92;3.45;;;21.70;94.70;;;;;;6277957;27;90079;-64
2022/09/03 05:20:08;;;;;;;4.30;3.55;;;21.70;94.60;;;;;;6281773;27;89081;-64
2022/09/03 05:23:10;;;;;;;4.00;3.60;;;21.70;94.70;;;;;;6281398;27;89041;-64
2022/09/03 05:26:14;;;;;;;5.00;4.03;;;21.70;94.80;;;;;;6280926;27;89083;-64
2022/09/03 05:29:18;;;;;;;5.30;4.22;;;21.70;94.80;;;;;;6280581;27;89100;-64
2022/09/03 05:32:20;;;;;;;4.55;3.75;;;21.70;94.80;;;;;;6280154;27;87974;-64
2022/09/03 05:35:25;;;;;;;4.05;3.67;;;21.70;94.80;;;;;;6281602;27;89221;-64
2022/09/03 05:38:27;;;;;;;4.00;3.50;;;21.70;94.80;;;;;;6281807;27;88845;-65
2022/09/03 05:41:30;;;;;;;4.32;3.42;;;21.70;94.80;;;;;;6280031;27;89124;-64
2022/09/03 05:44:32;;;;;;;4.25;3.47;;;21.70;94.80;;;;;;6281224;27;89221;-64
2022/09/03 05:47:34;;;;;;;5.40;3.90;;;21.70;94.80;;;;;;6280407;27;88902;-64
2022/09/03 05:50:37;;;;;;;4.78;3.60;;;21.70;94.80;;;;;;6280854;27;89553;-64
2022/09/03 05:53:40;;;;;;;4.43;3.67;;;21.70;94.80;;;;;;6280479;27;88924;-64
2022/09/03 05:56:42;;;;;;;3.90;3.50;;;21.70;94.70;;;;;;6280314;27;89377;-64
2022/09/03 05:59:44;;;;;;;3.88;3.47;;;21.70;94.70;;;;;;6280010;27;88973;-64
2022/09/03 06:02:51;;;;;;;5.35;3.78;;;21.70;94.60;;;;;;6279973;27;89464;-64
2022/09/03 06:05:54;;;;;;;4.13;3.60;;;21.70;94.70;;;;;;6280940;27;89512;-64
2022/09/03 06:08:59;;;;;;;3.85;3.40;;;21.70;94.70;;;;;;6282483;27;88462;-64
2022/09/03 06:12:01;;;;;;;3.67;2.78;;;21.70;94.70;;;;;;6279940;27;87009;-64
2022/09/03 06:15:04;;;;;;;3.40;3.10;;;21.70;94.60;;;;;;6281304;27;89065;-64
2022/09/03 06:18:06;;;;;;;3.30;3.00;;;21.70;94.40;;;;;;6278217;27;88923;-64
2022/09/03 06:21:10;;;;;;;3.83;3.20;;;21.70;94.40;;;;;;6280435;27;89710;-64
2022/09/03 06:24:13;;;;;;;3.60;3.25;;;21.70;94.40;;;;;;6279898;27;89044;-64
2022/09/03 06:27:15;;;;;;;3.97;3.38;;;21.70;94.40;;;;;;6280644;27;89083;-64
2022/09/03 06:30:17;;;;;;;3.85;3.30;;;21.70;94.50;;;;;;6280466;27;89089;-64
2022/09/03 06:33:19;;;;;;;4.00;3.25;;;21.70;94.40;;;;;;6280576;27;90710;-65
2022/09/03 06:36:25;;;;;;;5.30;3.30;;;21.70;94.50;;;;;;6279940;27;89055;-64
2022/09/03 06:39:27;;;;;;;3.45;3.15;;;21.70;94.60;;;;;;6280067;27;88319;-64
2022/09/03 06:42:29;;;;;;;3.78;3.38;;;21.70;94.50;;;;;;6279521;27;87232;-65
2022/09/03 06:45:32;;;;;;;6.05;3.38;;;21.70;94.50;;;;;;6281336;27;89381;-64
2022/09/03 06:48:35;;;;;;;3.72;3.38;;;21.70;94.50;;;;;;6279845;27;90076;-64
2022/09/03 06:51:40;;;;;;;3.42;2.97;;;21.80;94.70;;;;;;6279754;27;89063;-64
2022/09/03 06:54:42;;;;;;;3.75;3.17;;;21.70;94.70;;;;;;6280121;27;89343;-64
2022/09/03 06:57:44;;;;;;;3.95;3.10;;;21.70;94.60;;;;;;6278957;27;89128;-65
2022/09/03 07:00:46;;;;;;;3.53;3.10;;;21.80;94.40;;;;;;6281028;27;89244;-64
2022/09/03 07:03:54;;;;;;;3.63;2.70;;;21.80;94.40;;;;;;6279400;27;89082;-64
2022/09/03 07:06:58;;;;;;;3.22;2.90;;;21.80;94.40;;;;;;6282260;27;89444;-64
2022/09/03 07:10:00;;;;;;;3.20;2.90;;;21.80;94.40;;;;;;6283341;27;88388;-64
2022/09/03 07:13:02;;;;;;;3.45;2.95;;;21.80;94.50;;;;;;6282902;27;87807;-65
2022/09/03 07:16:06;;;;;;;4.10;3.20;;;21.80;94.40;;;;;;6282071;27;89508;-64
2022/09/03 07:19:09;;;;;;;4.25;2.90;;;21.80;94.60;;;;;;6283648;27;89970;-65
2022/09/03 07:22:12;;;;;;;3.58;2.72;;;21.80;94.90;;;;;;6284402;27;89324;-64
2022/09/03 07:25:14;;;;;;;3.90;3.00;;;21.80;94.80;;;;;;6283777;27;87992;-65
2022/09/03 07:28:16;;;;;;;4.03;3.03;;;21.80;94.90;;;;;;6282728;27;89019;-64
2022/09/03 07:31:21;;;;;;;2.92;2.63;;;21.80;95.00;;;;;;6284145;27;89196;-64
2022/09/03 07:34:25;;;;;;;3.53;2.80;;;21.80;95.10;;;;;;6283596;27;88159;-64
2022/09/03 07:37:29;;;;;;;4.03;3.40;;;21.80;95.10;;;;;;6282399;27;89197;-64
2022/09/03 07:40:32;;;;;;;4.15;3.25;;;21.80;95.30;;;;;;6280706;27;87229;-64
2022/09/03 07:43:35;;;;;;;3.15;2.85;;;21.80;95.40;;;;;;6283613;27;89082;-64
2022/09/03 07:46:39;;;;;;;4.05;2.88;;;21.80;95.50;;;;;;6280058;27;89413;-64
2022/09/03 07:49:41;;;;;;;3.45;2.85;;;21.80;95.60;;;;;;6282481;27;90122;-64
2022/09/03 07:52:44;;;;;;;3.30;2.90;;;21.80;95.70;;;;;;6282833;27;88957;-64
2022/09/03 07:55:46;;;;;;;3.35;2.90;;;21.80;95.80;;;;;;6283546;27;89032;-64
2022/09/03 07:58:48;;;;;;;3.47;3.17;;;21.70;95.60;;;;;;6282873;27;87780;-65
2022/09/03 08:01:50;;;;;;;3.83;2.90;;;21.80;95.70;;;;;;6282544;27;89112;-64
2022/09/03 08:04:52;;;;;;;2.85;2.60;;;21.80;95.80;;;;;;6282593;27;89099;-64
2022/09/03 08:07:56;;;;;;;3.17;2.80;;;21.80;95.70;;;;;;6282033;27;89157;-64
2022/09/03 08:11:06;;;;;;;3.08;2.78;;;21.70;95.70;;;;;;6283994;27;88489;-64
2022/09/03 08:14:10;;;;;;;2.90;2.60;;;21.70;95.80;;;;;;6282846;27;87835;-64
2022/09/03 08:17:12;;;;;;;3.88;3.17;;;21.80;95.90;;;;;;6281942;27;89373;-64
2022/09/03 08:20:14;;;;;;;4.20;2.88;;;21.80;95.90;;;;;;6281909;27;89893;-65
2022/09/03 08:23:18;;;;;;;3.38;2.70;;;21.80;95.90;;;;;;6283520;27;89071;-65
2022/09/03 08:26:21;;;;;;;2.80;2.58;;;21.80;96.00;;;;;;6282137;27;87926;-65
2022/09/03 08:29:23;;;;;;;3.30;2.72;;;21.70;96.00;;;;;;6282335;27;88943;-64
2022/09/03 08:32:25;;;;;;;4.45;2.97;;;21.80;96.00;;;;;;6281988;27;88973;-65
2022/09/03 08:35:29;;;;;;;4.00;2.70;;;21.80;96.10;;;;;;6282008;27;89281;-64
2022/09/03 08:38:33;;;;;;;3.65;2.50;;;21.70;96.20;;;;;;6283134;27;89390;-64
2022/09/03 08:42:00;;;;;;;3.10;2.65;;;21.70;96.20;;;;;;6282175;27;90350;-64
2022/09/03 08:45:05;;;;;;;3.80;2.20;;;21.70;96.10;;;;;;6281599;27;89489;-64
2022/09/03 08:48:13;;;;;;;2.65;2.40;;;21.80;96.00;;;;;;6282097;27;89413;-65
2022/09/03 08:51:16;;;;;;;2.80;2.50;;;21.70;96.00;;;;;;6276801;27;90453;-64
2022/09/03 08:54:24;;;;;;;3.20;2.42;;;21.70;96.00;;;;;;6274794;27;87775;-64
2022/09/03 08:57:26;;;;;;;3.40;2.45;;;21.80;96.10;;;;;;6281772;27;89369;-65
2022/09/03 09:00:40;;;;;;;2.85;2.45;;;21.80;96.20;;;;;;6280312;27;89407;-65
2022/09/03 09:03:47;;;;;;;3.58;2.40;;;21.80;96.10;;;;;;6282234;27;89072;-64
2022/09/03 09:06:57;;;;;;;2.60;2.35;;;21.80;96.00;;;;;;6282435;27;89101;-64
2022/09/03 09:10:12;;;;;;;2.53;2.33;;;21.80;96.00;;;;;;6281339;27;89010;-65
2022/09/03 09:13:26;;;;;;;2.97;2.50;;;21.80;96.20;;;;;;6281515;27;88297;-65
2022/09/03 09:16:36;;;;;;;4.18;2.30;;;21.80;96.40;;;;;;6280886;27;89068;-65
2022/09/03 09:19:47;;;;;;;3.65;2.58;;;21.70;96.40;;;;;;6281388;27;89095;-64
2022/09/03 09:22:54;;;;;;;2.55;2.35;;;21.80;96.50;;;;;;6280801;27;90391;-64
2022/09/03 09:26:01;;;;;;;3.53;2.60;;;21.70;96.50;;;;;;6280915;27;89299;-64
2022/09/03 09:29:07;;;;;;;3.80;2.70;;;21.70;96.70;;;;;;6280178;27;89111;-64
2022/09/03 09:32:11;;;;;;;2.63;2.38;;;21.80;96.90;;;;;;6280880;27;89493;-64
2022/09/03 09:35:14;;;;;;;2.50;2.30;;;21.80;97.00;;;;;;6268737;27;89040;-64
2022/09/03 09:38:27;;;;;;;3.20;2.35;;;21.80;96.90;;;;;;6281138;27;88295;-64
2022/09/03 09:41:30;;;;;;;3.35;2.50;;;21.80;96.80;;;;;;6279910;27;89084;-65
2022/09/03 09:44:32;;;;;;;2.88;2.60;;;21.80;97.10;;;;;;6281567;27;86931;-64
2022/09/03 09:47:39;;;;;;;3.05;2.50;;;21.80;97.20;;;;;;6281388;27;89095;-64
2022/09/03 09:50:41;;;;;;;3.10;2.70;;;21.80;97.40;;;;;;6280325;27;89088;-65
2022/09/03 09:53:44;;;;;;;2.78;2.47;;;21.80;97.40;;;;;;6280407;27;90035;-64
2022/09/03 09:56:58;;;;;;;3.08;2.50;;;21.80;97.60;;;;;;6280991;27;89132;-65
2022/09/03 10:00:08;;;;;;;2.47;2.28;;;21.80;97.60;;;;;;6280664;27;89145;-65
2022/09/03 10:03:12;;;;;;;2.97;2.60;;;21.80;97.80;;;;;;6281031;27;87853;-64
2022/09/03 10:09:35;;;;;;;3.08;2.65;;;21.80;97.80;;;;;;6279633;27;87570;-65
2022/09/03 10:12:43;;;;;;;3.40;2.70;;;21.80;97.80;;;;;;6280521;27;89112;-65
2022/09/03 10:15:50;;;;;;;4.35;2.90;;;21.80;97.90;;;;;;6281435;27;88381;-64
2022/09/03 10:19:00;;;;;;;3.80;2.55;;;21.80;97.80;;;;;;6281068;27;88878;-64
2022/09/03 10:22:10;;;;;;;3.58;2.30;;;21.80;97.90;;;;;;6280987;27;89069;-64
2022/09/03 10:25:15;;;;;;;3.13;2.70;;;21.90;98.10;;;;;;6278814;27;90043;-65
2022/09/03 10:28:20;;;;;;;2.70;2.50;;;21.90;98.10;;;;;;6280613;27;89078;-65
2022/09/03 10:31:44;;;;;;;2.80;2.50;;;21.80;98.20;;;;;;6279030;27;89092;-65
2022/09/03 10:34:58;;;;;;;2.83;2.42;;;21.80;98.20;;;;;;6278835;27;89619;-65
2022/09/03 10:38:16;;;;;;;3.75;2.58;;;21.80;98.40;;;;;;6279942;27;89228;-65
2022/09/03 10:41:30;;;;;;;3.80;3.10;;;21.80;98.50;;;;;;6273391;27;88061;-65
2022/09/03 10:44:48;;;;;;;3.20;2.45;;;21.80;98.80;;;;;;6284307;27;88937;-64
2022/09/03 10:48:12;;;;;;;5.03;2.45;;;21.90;99.30;;;;;;6284887;27;87558;-64
2022/09/03 10:51:19;;;;;;;3.25;2.40;;;21.90;98.90;;;;;;6283570;27;89100;-65
2022/09/03 10:54:40;;;;;;;2.47;2.20;;;21.90;98.80;;;;;;6282725;27;88900;-65
2022/09/03 10:57:49;;;;;;;2.85;2.55;;;21.90;98.70;;;;;;6276522;27;90064;-65
2022/09/03 11:00:54;;;;;;;2.30;2.10;;;21.90;98.60;;;;;;6285225;27;89023;-65
2022/09/03 11:04:06;;;;;;;3.38;2.33;;;21.90;98.70;;;;;;6284554;27;88704;-64
2022/09/03 11:07:12;;;;;;;2.85;2.33;;;21.90;98.90;;;;;;6284131;27;88669;-65
2022/09/03 11:10:20;;;;;;;2.70;2.30;;;21.90;99.10;;;;;;6284626;27;88905;-65
2022/09/03 11:13:27;;;;;;;2.80;2.22;;;21.90;99.20;;;;;;6284494;27;89298;-65
2022/09/03 11:16:33;;;;;;;2.60;2.40;;;21.90;99.20;;;;;;6284398;27;89035;-64
2022/09/03 11:19:41;;;;;;;3.92;2.20;;;21.90;99.30;;;;;;6284096;27;88452;-65
2022/09/03 11:22:46;;;;;;;5.22;2.72;;;21.90;99.70;;;;;;6277050;27;89772;-65
2022/09/03 11:25:51;;;;;;;2.92;2.30;;;21.90;99.80;;;;;;6283328;27;89513;-65
2022/09/03 11:28:58;;;;;;;3.17;2.40;;;21.90;99.70;;;;;;6282565;27;89944;-65
2022/09/03 11:32:06;;;;;;;3.17;2.50;;;21.90;99.80;;;;;;6270692;27;89617;-65
2022/09/03 11:35:15;;;;;;;2.65;2.35;;;21.90;99.80;;;;;;6283422;27;88841;-65
2022/09/03 11:38:26;;;;;;;2.80;2.45;;;21.90;99.70;;;;;;6283521;27;88918;-65
2022/09/03 11:41:33;;;;;;;2.50;2.30;;;21.90;99.70;;;;;;6282564;27;89280;-65
2022/09/03 11:44:40;;;;;;;2.72;2.53;;;21.90;99.70;;;;;;6283778;27;89146;-65
2022/09/03 11:47:45;;;;;;;3.60;2.60;;;22.00;99.90;;;;;;6283348;27;90370;-65
2022/09/03 11:50:55;;;;;;;4.72;2.88;;;21.90;99.90;;;;;;6283797;27;88285;-65
2022/09/03 11:53:58;;;;;;;3.15;2.67;;;21.90;99.90;;;;;;6283006;27;89036;-65
2022/09/03 11:57:10;;;;;;;2.70;2.30;;;21.90;99.90;;;;;;6282618;27;89093;-65
2022/09/03 12:00:16;;;;;;;2.65;2.40;;;21.90;99.90;;;;;;6282294;27;89979;-65
2022/09/03 12:03:26;;;;;;;3.03;2.55;;;22.00;99.90;;;;;;6283051;27;88459;-64
2022/09/03 12:06:45;;;;;;;3.20;2.80;;;22.00;99.90;;;;;;6283452;27;87843;-65
2022/09/03 12:10:12;;;;;;;2.33;2.10;;;22.00;99.90;;;;;;6281483;27;88325;-64
2022/09/03 12:13:26;;;;;;;2.88;2.45;;;22.00;99.90;;;;;;6283151;27;89051;-64
2022/09/03 12:16:48;;;;;;;4.63;2.63;;;22.00;99.90;;;;;;6281904;27;89088;-65
2022/09/03 12:19:53;;;;;;;2.53;2.33;;;22.00;99.90;;;;;;6282372;27;89046;-65
2022/09/03 12:22:56;;;;;;;3.00;2.30;;;22.00;99.90;;;;;;6283451;27;88379;-65
2022/09/03 12:26:01;;;;;;;3.90;2.80;;;21.90;99.90;;;;;;6282588;27;89118;-65
2022/09/03 12:29:04;;;;;;;2.97;2.20;;;22.00;99.90;;;;;;6282281;27;88055;-65
2022/09/03 12:32:09;;;;;;;2.55;2.33;;;22.00;99.90;;;;;;6281909;27;90305;-65
2022/09/03 12:35:17;;;;;;;3.00;2.47;;;22.00;99.90;;;;;;6283279;27;89267;-65
2022/09/03 12:38:23;;;;;;;2.50;2.30;;;22.00;99.90;;;;;;6269675;27;89058;-65
2022/09/03 12:41:29;;;;;;;3.03;2.50;;;22.00;99.90;;;;;;6282204;27;88952;-65
2022/09/03 12:44:38;;;;;;;3.88;2.30;;;22.00;99.90;;;;;;6280565;27;89121;-65
2022/09/03 12:47:40;;;;;;;2.88;2.58;;;22.00;99.90;;;;;;6280673;27;89054;-64
2022/09/03 12:50:45;;;;;;;3.50;2.75;;;22.00;99.90;;;;;;6281521;27;89091;-65
2022/09/03 12:53:50;;;;;;;4.10;2.38;;;22.00;99.90;;;;;;6271599;27;87603;-65
2022/09/03 12:56:57;;;;;;;2.92;2.65;;;22.00;99.90;;;;;;6282092;27;89650;-65
2022/09/03 13:00:04;;;;;;;2.92;2.60;;;22.00;99.90;;;;;;6282576;27;89275;-65
2022/09/03 13:03:11;;;;;;;2.70;2.50;;;22.00;99.90;;;;;;6280916;27;88795;-65
2022/09/03 13:06:19;;;;;;;2.92;2.58;;;22.00;99.90;;;;;;6281937;27;89178;-65
2022/09/03 13:09:25;;;;;;;2.50;2.30;;;22.00;99.90;;;;;;6281577;27;88957;-65
2022/09/03 13:12:32;;;;;;;2.95;2.60;;;22.00;99.90;;;;;;6268230;27;89069;-65
2022/09/03 13:15:34;;;;;;;5.55;2.55;;;22.00;99.90;;;;;;6281138;27;89073;-65
2022/09/03 13:18:42;;;;;;;3.28;2.83;;;22.00;99.90;;;;;;6281117;27;89025;-65
2022/09/03 13:21:53;;;;;;;2.55;2.30;;;22.00;99.90;;;;;;6281779;27;89284;-65
2022/09/03 13:25:13;;;;;;;2.63;2.42;;;22.00;99.90;;;;;;6281240;27;87215;-65
2022/09/03 13:28:30;;;;;;;2.97;2.42;;;22.00;99.90;;;;;;6281234;27;89324;-65
2022/09/03 13:31:37;;;;;;;2.75;2.45;;;22.00;99.90;;;;;;6280751;27;89153;-65
2022/09/03 13:34:43;;;;;;;3.22;2.60;;;22.00;99.90;;;;;;6280475;27;90070;-65
2022/09/03 13:37:54;;;;;;;2.60;2.38;;;22.00;99.90;;;;;;6282195;27;89090;-65
2022/09/03 13:41:01;;;;;;;2.97;2.65;;;22.00;99.90;;;;;;6273548;27;89135;-65
2022/09/03 13:44:10;;;;;;;3.05;2.50;;;22.00;99.90;;;;;;6282296;27;87901;-65
2022/09/03 13:47:24;;;;;;;2.50;2.30;;;22.00;99.90;;;;;;6269693;27;88843;-65
2022/09/03 13:50:27;;;;;;;2.90;2.60;;;22.00;99.90;;;;;;6282531;27;89278;-65
2022/09/03 13:53:41;;;;;;;2.40;2.20;;;22.00;99.90;;;;;;6281156;27;88107;-65
2022/09/03 13:56:57;;;;;;;3.17;2.58;;;22.00;99.90;;;;;;6280568;27;87370;-65
2022/09/03 14:00:06;;;;;;;2.70;2.50;;;22.00;99.90;;;;;;6280595;27;88966;-65
2022/09/03 14:03:14;;;;;;;3.00;2.80;;;22.00;99.90;;;;;;6280356;27;88406;-64
2022/09/03 14:06:26;;;;;;;2.60;2.40;;;22.00;99.90;;;;;;6279903;27;88680;-64
2022/09/03 14:09:39;;;;;;;3.40;2.80;;;22.00;99.90;;;;;;6280315;27;89083;-65
2022/09/03 14:12:45;;;;;;;3.47;2.78;;;22.00;99.90;;;;;;6280430;27;89349;-65
2022/09/03 14:15:50;;;;;;;3.50;2.70;;;22.00;99.90;;;;;;6282868;27;88932;-65
2022/09/03 14:18:58;;;;;;;3.03;2.78;;;22.00;99.90;;;;;;6285333;27;89084;-65
2022/09/03 14:22:06;;;;;;;3.35;3.05;;;22.00;99.90;;;;;;6285017;27;89456;-65
2022/09/03 14:25:15;;;;;;;3.05;2.70;;;22.00;99.90;;;;;;6284591;27;89604;-65
2022/09/03 14:28:28;;;;;;;2.88;2.67;;;22.00;99.90;;;;;;6284297;27;88429;-65
2022/09/03 14:31:52;;;;;;;3.60;2.95;;;22.00;99.90;;;;;;6284798;27;89187;-65
2022/09/03 14:35:23;;;;;;;3.53;3.00;;;22.00;99.90;;;;;;6283428;27;89285;-65
2022/09/03 14:38:55;;;;;;;3.30;3.00;;;22.00;99.90;;;;;;6283095;27;90030;-65
2022/09/03 14:42:23;;;;;;;2.90;2.67;;;22.10;99.90;;;;;;6273802;27;89216;-65
2022/09/03 14:45:40;;;;;;;3.17;2.80;;;22.00;99.90;;;;;;6283182;27;89099;-64
2022/09/03 14:49:10;;;;;;;3.22;2.45;;;22.10;99.90;;;;;;6283780;27;89075;-65
2022/09/03 14:52:28;;;;;;;2.85;2.60;;;22.10;99.90;;;;;;6273229;27;89101;-65
2022/09/03 14:56:05;;;;;;;2.88;2.65;;;22.00;99.90;;;;;;6272724;27;88776;-65
2022/09/03 14:59:37;;;;;;;3.50;2.75;;;22.00;99.90;;;;;;6263349;27;89121;-65
2022/09/03 15:03:14;;;;;;;3.47;2.85;;;22.00;99.90;;;;;;6274129;27;88319;-64
2022/09/03 15:06:32;;;;;;;2.97;2.60;;;22.00;99.90;;;;;;6259465;27;89119;-65
2022/09/03 15:09:41;;;;;;;3.15;2.70;;;22.00;99.90;;;;;;6283538;27;88985;-65
2022/09/03 15:12:48;;;;;;;2.90;2.60;;;22.10;99.90;;;;;;6283531;27;88961;-65
2022/09/03 15:16:04;;;;;;;3.25;2.58;;;22.00;99.90;;;;;;6284016;27;89469;-65
2022/09/03 15:19:16;;;;;;;3.40;2.70;;;22.10;99.90;;;;;;6283796;27;89089;-65
2022/09/03 15:22:34;;;;;;;3.17;2.88;;;22.00;99.90;;;;;;6283771;27;89258;-65
2022/09/03 15:25:48;;;;;;;3.03;2.72;;;22.10;99.90;;;;;;6275724;27;89131;-65
2022/09/03 15:29:03;;;;;;;2.88;2.65;;;22.10;99.90;;;;;;6276043;27;89237;-65
2022/09/03 15:32:18;;;;;;;2.63;2.42;;;22.00;99.90;;;;;;6275517;27;87840;-66
2022/09/03 15:35:40;;;;;;;2.72;2.50;;;22.10;99.90;;;;;;6275419;27;88271;-66
2022/09/03 15:38:48;;;;;;;2.72;2.53;;;22.10;99.90;;;;;;6275420;27;89141;-65
2022/09/03 15:41:55;;;;;;;2.65;2.45;;;22.00;99.90;;;;;;6284483;27;90278;-65
2022/09/03 15:45:04;;;;;;;2.70;2.50;;;22.10;99.90;;;;;;6278344;27;90287;-65
2022/09/03 15:48:26;;;;;;;2.92;2.70;;;22.00;99.90;;;;;;6277069;27;88982;-65
2022/09/03 15:51:31;;;;;;;3.30;3.00;;;22.10;99.90;;;;;;6279361;27;88004;-65
2022/09/03 15:54:43;;;;;;;3.33;2.70;;;22.10;99.90;;;;;;6283213;27;89154;-65
2022/09/03 15:57:51;;;;;;;3.10;2.72;;;22.10;99.90;;;;;;6283339;27;89050;-65
2022/09/03 16:00:59;;;;;;;3.45;2.75;;;22.10;99.90;;;;;;6283071;27;88998;-65
2022/09/03 16:04:09;;;;;;;3.25;2.95;;;22.00;99.90;;;;;;6283281;27;88985;-65
2022/09/03 16:07:24;;;;;;;3.10;2.83;;;22.10;99.90;;;;;;6281950;27;88855;-65
2022/09/03 16:10:39;;;;;;;3.00;2.80;;;22.10;99.90;;;;;;6283210;27;89011;-65
2022/09/03 16:13:58;;;;;;;5.00;3.00;;;22.10;99.90;;;;;;6280476;27;89074;-66
2022/09/03 16:17:06;;;;;;;3.75;3.08;;;22.10;99.90;;;;;;6271422;27;88817;-66
2022/09/03 16:20:20;;;;;;;3.40;3.10;;;22.10;99.90;;;;;;6282526;27;89075;-67